Immagine casuale
Testata Regione Lazio ARSIAL SIARL

Ultima Misura Rilevata

Temperatura, Umidità, Pioggia, Pressione Radiazione Solare, Venti, Evapotraspirazione, ecc.
Temperature diurne e notturne Direzione vento Legenda
Prov Stazione Data TMin TMed TMax UMed Pioggia PMed
FR ALATRI Basciano 22/03/2019 8,6 15,1 25 49 0 1.023
FR ALVITO Az. Ist. S. Benedetto 22/03/2019 2,4 12,2 22,3 59 0 1.025
FR ANAGNI La Gloria 22/03/2019 4,9 13,3 22,8 59 0 1.020
FR ARPINO Vigne Piane 22/03/2019 7,9 13,8 22,4 52 0 1.027
FR BOVILLE ERNICA Sasso 22/03/2019 7,3 14,8 24,4 51 0 1.024
FR ESPERIA Modale 22/03/2019 5,9 15 24,1 48 0 1.027
FR PASTENA Acero 22/03/2019 0,2 12 22,9 63 0 1.026
FR PIGLIO Civitella 22/03/2019 5,7 13,6 23,4 54 0 1.023
FR PONTECORVO Melfi di Sotto 22/03/2019 2,4 13 23,4 62 0 ----
FR S. ELIA FIUMERAPIDO Portella 22/03/2019 8,7 16,3 23,5 41 0 1.024
FR S. GIORGIO A LIRI Porto 22/03/2019 5,2 15,5 25,1 49 0 1.021
FR SGURGOLA Campo Lungo 22/03/2019 0,4 11,8 23,6 68 0 ----
FR VALLECORSA Serbatoio comunale 22/03/2019 9,8 14,9 23 47 0 1.025
LT APRILIA Le Ferriere 22/03/2019 7 14,5 23,9 58 0 1.024
LT CISTERNA B.go Carso 22/03/2019 7 14 22,5 58 0 ----
LT CISTERNA Doganella di Ninfa 22/03/2019 5,3 14,7 24,5 56 0 1.024
LT CORI Portone 22/03/2019 8,5 15,8 24,5 51 0 1.023
LT FONDI Capratica 22/03/2019 6 13,4 21,1 71 0 1.023
LT FORMIA Loc. Gianola 22/03/2019 5,9 16,8 23,7 46 0 ----
LT ITRI Valle Quercia 22/03/2019 10,7 16,5 22,3 43 0 1.021
LT MAENZA Casacotta 22/03/2019 8,6 15,4 23,9 55 0 1.025
LT MINTURNO Pulcherini 22/03/2019 13,4 17,9 24,5 36 0 1.023
LT PONTINIA Cotarda 22/03/2019 5,9 15,2 23,2 56 0 1.025
LT SABAUDIA Acquaviva 22/03/2019 4,8 12,7 21,3 73 0 1.024
LT SONNINO Frasso 22/03/2019 9,4 16,7 24,7 48 0 1.023
RI ACCUMOLI Terracino 22/03/2019 1,4 6,6 13,3 68 0 1.028
RI BORGOVELINO Ponte Basso 22/03/2019 6,6 13,5 23,4 47 0 1.024
RI CANTALUPO S. Francesco 22/03/2019 3,6 12,4 22,2 53 0 ----
RI CASTEL DI TORA Monte di Tora 22/03/2019 7,2 14,2 24,6 47 0 1.026
RI CASTELNUOVO FARFA C. Spadone 22/03/2019 8,5 16,2 23,9 46 0 ----
RI CONFIGNI Portella 22/03/2019 5,8 12,9 21,7 52 0 1.028
RI FARA SABINA Canneto 22/03/2019 11,5 16,3 24,6 44 0 1.020
RI FARA SABINA Sant'Andrea 22/03/2019 7 15 23,2 47 0 ----
RI MONTELEONE S. Prato Camino 22/03/2019 7,9 14,9 24,5 46 0 1.025
RI MONTOPOLI IN SABINA Colle Arcone 22/03/2019 6,6 13,8 22,4 58 0 ----
RI MONTOPOLI IN SABINA Villa Caprola 22/03/2019 7,5 15,4 25 61 0 ----
RI POGGIO CATINO Pastine 22/03/2019 6,1 14,6 23,5 50 0 ----
RI POGGIO NATIVO Casali 22/03/2019 8,5 14,6 21,4 49 0 ----
RI RIETI Piana di Rieti 22/03/2019 0,1 12,7 23,8 50 0 1.026
RI SCANDRIGLIA Ponticelli 22/03/2019 9,1 14,9 20,9 51 0 ----
RM AGOSTA La Cisterna 22/03/2019 4,6 12,6 24,3 57 0 1.023
RM BRACCIANO Prato Pianciano 22/03/2019 6,6 14,2 24,4 52 0 1.022
RM CANALE MONTERANO Monte Virginio 22/03/2019 3,6 12,2 24,2 60 0 1.022
RM CERVETERI Campo di Mare 22/03/2019 7,7 14,1 20,8 51 0 ----
RM CIVITELLA S.PAOLO Le Cese 22/03/2019 5,8 13,7 22,6 52 0 1.023
RM FIUMICINO Maccarese 22/03/2019 5,9 13,6 24,1 63 0 1.023
RM FIUMICINO Testa di Lepre 22/03/2019 9,5 14,6 22,9 46 0 ----
RM FORMELLO Perazzeta 22/03/2019 9,2 15,1 22,6 47 0 ----
RM FRASCATI Prata Porci 22/03/2019 5,5 14,4 23,8 52 0 1.024
RM GENAZZANO Coop. La Sonnina 22/03/2019 5,7 13,7 23,2 55 0 1.024
RM GROTTAFERRATA Valle Marciana 22/03/2019 8,2 14,1 21,9 52 0 1.023
RM LICENZA Colle Franco 22/03/2019 7,2 13,8 22,8 49 0 1.027
RM MARCELLINA V. Campetella 22/03/2019 6,4 14 22,8 59 0 ----
RM MARINO Gotto d'Oro 22/03/2019 5,2 13,8 22,4 56 0 1.025
RM MONTECOMPATRI Colle Mattia 22/03/2019 6,8 14,9 22,4 50 0 1.024
RM MONTECOMPATRI Pantano Borghese 22/03/2019 2,9 13,1 24,5 62 0 1.023
RM MONTELIBRETTI Bruciati 22/03/2019 5,8 14,8 24,7 52 0 ----
RM MONTEPORZIO Camaldoli 22/03/2019 6,4 12,3 19,6 55 0 1.025
RM MONTEROTONDO Grotta Marozza 22/03/2019 6,1 14,1 23,7 52 0 1.024
RM PALOMBARA Fonte Grande 22/03/2019 2,6 12,7 23,5 56 0 ----
RM ROMA Capocotta 22/03/2019 N.D. N.D. N.D. N.D. N.D. ----
RM ROMA Ponte di Nona 22/03/2019 7,5 14,7 23,2 56 0 1.025
RM ROMA Via Lanciani 38 22/03/2019 9,3 15,7 22,8 49 0 1.022
RM S. GREGORIO C. Faustiniano 22/03/2019 7 13,7 22,4 52 0 1.023
RM VELLETRI Cantina Sperimentale 22/03/2019 7,9 14,8 23,7 48 0 1.025
RM VELLETRI Prato Lungo 22/03/2019 7,5 15,1 22,1 49 0 ----
RM ZAGAROLO Santa Apollara 22/03/2019 8,9 14,6 22,3 52 0 ----
VT ACQUAPENDENTE Falconiera 22/03/2019 5,3 12,1 21 48 0 1.026
VT BAGNOREGIO Castell Cellesi 22/03/2019 7,8 13 19,6 40 0 ----
VT BASSANO R. Piano Mola 22/03/2019 8,1 13,7 23,2 50 0 1.021
VT BLERA Puntoni 22/03/2019 3,1 11,5 21,9 62 0 1.024
VT BOLSENA Capone 22/03/2019 8,9 13,9 21,6 42 0 1.021
VT BOLSENA Rentica 22/03/2019 8,5 13,4 19,9 40 0 ----
VT CANINO Diga Timone 22/03/2019 8,8 14,8 23,6 45 0 1.025
VT CANINO Pianacce 22/03/2019 9,1 14,9 23 44 0 1.024
VT CANINO San Valeriano 22/03/2019 10 14,8 21,8 43 0 ----
VT CELLENO Acquaforte 22/03/2019 8,5 13,5 20,4 49 0 ----
VT CORCHIANO Pantalone 22/03/2019 7,8 14,4 23,2 46 0 1.025
VT FARNESE Gressa 22/03/2019 8,7 13,8 20,7 44 0 ----
VT FARNESE Pian di Sala 22/03/2019 8 13,5 21,7 45 0 ----
VT GROTTE DI CASTRO Borghetto 22/03/2019 8,4 14 21,8 43 0 1.025
VT GROTTE DI CASTRO Purgatorio 22/03/2019 5,5 12 20,5 48 0 1.026
VT LATERA Centro Florovivaistico 22/03/2019 8,5 13,8 22,4 43 0 1.025
VT MONTALTO Le Murelle 22/03/2019 5 12,8 22,5 56 0 1.025
VT MONTALTO Pescia Romana 22/03/2019 7,1 14,7 22,5 49 0 1.024
VT MONTEFIASCONE Commenda 22/03/2019 7,3 14,2 21,3 47 0 ----
VT RONCIGLIONE Ponterotto 22/03/2019 N.D. N.D. N.D. N.D. N.D. ----
VT SORIANO CIMINO Pantane 22/03/2019 5,1 13 22,2 47 0 1.024
VT SORIANO CIMINO Poggio di Chia 22/03/2019 7,1 13,2 21,6 48 0 ----
VT TARQUINIA Portaccia 22/03/2019 8 13,8 22,1 56 0 ----
VT TUSCANIA Montebello 22/03/2019 8,1 13,5 20,6 49 0 ----
VT VETRALLA Marchionato 22/03/2019 4,4 12,5 21,1 54 0 ----
VT VITERBO Pisello 22/03/2019 6,8 13,8 20,9 45 0 ----
N.D. = Dati Non Disponibili
---- = Sensore non presente

Le misure esposte sono grezze, ovvero non sono state validate